Canadian Shore — CFN5434 — position and weather

sailwx.info

Track history (hours):
 
Tides and Currents Weather Stations Pressure Air Temp Water Temp Dewpoint Dewpoint Depression Visibility Wind Speed Wind Dir Waves Ship Positions

Canadian Shore

Last reported at 2018-May-06 17:38 UTC. Time now 2018-May-23 01:34 UTC.
Position N 50°12' W 125°22'.
Warning: this ship's position is 16 days out of date.

Length 24 m.

Type: Fishing. MMSI: 316018816.

Date/timePositionNaut miles runAvg speedWind from/ knotsBaromVisibWave heightAir tempDewpointWater temp
2018-May-06 17:38N 50°12' W 125°22'1 7.0
2018-May-06 17:30N 50°12' W 125°22'3 6.7
2018-May-06 17:00N 50°08' W 125°21'3 5.6
2018-May-06 16:30N 50°06' W 125°18'3 5.1
2018-May-06 16:00N 50°04' W 125°16'2 4.2
2018-May-06 15:30N 50°02' W 125°15'0 0.2
2018-May-06 14:59N 50°02' W 125°15'0 0.0
2018-May-06 14:29N 50°02' W 125°15'0 0.0
2018-May-06 13:59N 50°02' W 125°15'0 0.0
2018-May-06 13:29N 50°02' W 125°15'0 0.0
2018-May-06 12:59N 50°02' W 125°15'0 0.0
2018-May-06 12:29N 50°02' W 125°15'0 0.0
2018-May-06 11:59N 50°02' W 125°15'0 0.0
2018-May-06 11:29N 50°02' W 125°15'0 0.0
2018-May-06 10:59N 50°02' W 125°15'0 0.0
2018-May-06 10:29N 50°02' W 125°15'0 0.0
2018-May-06 09:59N 50°02' W 125°15'0 0.0
2018-May-06 09:29N 50°02' W 125°15'0 0.0
2018-May-06 08:59N 50°02' W 125°15'0 0.0
2018-May-06 08:29N 50°02' W 125°15'0 0.0
2018-May-06 07:59N 50°02' W 125°15'0 0.0
2018-May-06 07:29N 50°02' W 125°15'0 0.0
2018-May-06 06:59N 50°02' W 125°15'0 0.0
2018-May-06 06:29N 50°02' W 125°15'0 0.0
2018-May-06 05:59N 50°02' W 125°15'0 0.0
2018-May-06 05:29N 50°02' W 125°15'0 0.0
2018-May-06 05:00N 50°02' W 125°15'2 4.2
2018-May-06 04:30N 50°00' W 125°13'3 6.9
2018-May-06 04:00N 49°57' W 125°11'4 6.6
2018-May-06 03:27N 49°55' W 125°06'4 8.0
2018-May-06 03:00N 49°53' W 125°02'4 7.9
2018-May-06 02:29N 49°50' W 124°57'4 7.7
2018-May-06 01:58N 49°48' W 124°52'4 7.7
2018-May-06 01:27N 49°45' W 124°47'4 7.7
2018-May-06 00:55N 49°43' W 124°42'  
Track history (hours):
 
Tides and Currents Weather Stations Pressure Air Temp Water Temp Dewpoint Dewpoint Depression Visibility Wind Speed Wind Dir Waves Ship Positions

Canadian Shore

Last reported at 2018-May-06 17:38 UTC. Time now 2018-May-23 01:34 UTC.
Position N 50°12' W 125°22'.
Warning: this ship's position is 16 days out of date.

Length 24 m.

Type: Fishing. MMSI: 316018816.

Date/timePositionNaut miles runAvg speedWind from/ knotsBaromVisibWave heightAir tempDewpointWater temp
2018-May-06 17:38N 50°12' W 125°22'1 7.0
2018-May-06 17:30N 50°12' W 125°22'3 6.7
2018-May-06 17:00N 50°08' W 125°21'3 5.6
2018-May-06 16:30N 50°06' W 125°18'3 5.1
2018-May-06 16:00N 50°04' W 125°16'2 4.2
2018-May-06 15:30N 50°02' W 125°15'0 0.2
2018-May-06 14:59N 50°02' W 125°15'0 0.0
2018-May-06 14:29N 50°02' W 125°15'0 0.0
2018-May-06 13:59N 50°02' W 125°15'0 0.0
2018-May-06 13:29N 50°02' W 125°15'0 0.0
2018-May-06 12:59N 50°02' W 125°15'0 0.0
2018-May-06 12:29N 50°02' W 125°15'0 0.0
2018-May-06 11:59N 50°02' W 125°15'0 0.0
2018-May-06 11:29N 50°02' W 125°15'0 0.0
2018-May-06 10:59N 50°02' W 125°15'0 0.0
2018-May-06 10:29N 50°02' W 125°15'0 0.0
2018-May-06 09:59N 50°02' W 125°15'0 0.0
2018-May-06 09:29N 50°02' W 125°15'0 0.0
2018-May-06 08:59N 50°02' W 125°15'0 0.0
2018-May-06 08:29N 50°02' W 125°15'0 0.0
2018-May-06 07:59N 50°02' W 125°15'0 0.0
2018-May-06 07:29N 50°02' W 125°15'0 0.0
2018-May-06 06:59N 50°02' W 125°15'0 0.0
2018-May-06 06:29N 50°02' W 125°15'0 0.0
2018-May-06 05:59N 50°02' W 125°15'0 0.0
2018-May-06 05:29N 50°02' W 125°15'0 0.0
2018-May-06 05:00N 50°02' W 125°15'2 4.2
2018-May-06 04:30N 50°00' W 125°13'3 6.9
2018-May-06 04:00N 49°57' W 125°11'4 6.6
2018-May-06 03:27N 49°55' W 125°06'4 8.0
2018-May-06 03:00N 49°53' W 125°02'4 7.9
2018-May-06 02:29N 49°50' W 124°57'4 7.7
2018-May-06 01:58N 49°48' W 124°52'4 7.7
2018-May-06 01:27N 49°45' W 124°47'4 7.7
2018-May-06 00:55N 49°43' W 124°42'  

Dump ship's entire track history